createdAt,value
2018-08-03T00:01:43.168Z,21.65
2018-08-03T00:04:14.896Z,21.63
2018-08-03T00:06:45.027Z,21.65
2018-08-03T00:09:15.127Z,21.67
2018-08-03T00:11:45.389Z,21.64
2018-08-03T00:14:15.475Z,21.68
2018-08-03T00:16:45.795Z,21.64
2018-08-03T00:19:15.905Z,21.67
2018-08-03T00:21:46.129Z,21.66
2018-08-03T00:24:16.207Z,21.67
2018-08-03T00:26:46.341Z,21.66
2018-08-03T00:29:16.457Z,21.64
2018-08-03T00:31:46.646Z,21.61
2018-08-03T00:34:16.770Z,21.60
2018-08-03T00:36:46.941Z,21.59
2018-08-03T00:39:17.494Z,21.55
2018-08-03T00:41:47.627Z,21.54
2018-08-03T00:44:17.873Z,21.53
2018-08-03T00:46:48.027Z,21.54
2018-08-03T00:49:18.248Z,21.53
2018-08-03T00:51:48.472Z,21.52
2018-08-03T00:54:19.727Z,21.50
2018-08-03T00:56:51.451Z,21.49
2018-08-03T00:59:21.651Z,21.46
2018-08-03T01:01:51.986Z,21.40
2018-08-03T01:04:22.007Z,21.37
2018-08-03T01:06:52.924Z,21.32
2018-08-03T01:09:23.526Z,21.29
2018-08-03T01:11:53.759Z,21.04
2018-08-03T01:14:23.375Z,21.23
2018-08-03T01:16:53.407Z,21.19
2018-08-03T01:19:23.498Z,21.16
2018-08-03T01:21:53.494Z,21.11
2018-08-03T01:24:23.502Z,21.09
2018-08-03T01:26:53.637Z,21.02
2018-08-03T01:29:23.705Z,21.04
2018-08-03T01:31:53.335Z,20.99
2018-08-03T01:34:23.289Z,20.94
2018-08-03T01:36:53.288Z,20.94
2018-08-03T01:39:28.170Z,20.91
2018-08-03T01:41:58.245Z,20.88
2018-08-03T01:44:28.338Z,20.84
2018-08-03T01:46:58.439Z,20.82
2018-08-03T01:49:28.537Z,20.77
2018-08-03T01:51:59.362Z,20.73
2018-08-03T01:54:29.369Z,20.67
2018-08-03T01:56:59.540Z,20.63
2018-08-03T01:59:29.560Z,20.66
2018-08-03T02:01:59.645Z,20.66
2018-08-03T02:04:29.598Z,20.66
2018-08-03T02:06:59.655Z,20.66
2018-08-03T02:09:29.622Z,20.66
2018-08-03T02:11:59.710Z,20.65
2018-08-03T02:14:29.688Z,20.65
2018-08-03T02:17:00.747Z,20.61
2018-08-03T02:19:30.792Z,20.61
2018-08-03T02:22:00.967Z,20.59
2018-08-03T02:24:31.096Z,20.54
2018-08-03T02:27:01.159Z,20.15
2018-08-03T02:29:31.250Z,20.53
2018-08-03T02:32:02.043Z,20.48
2018-08-03T02:34:32.208Z,20.53
2018-08-03T02:37:02.328Z,20.47
2018-08-03T02:39:32.432Z,20.49
2018-08-03T02:42:02.556Z,20.50
2018-08-03T02:44:34.887Z,20.46
2018-08-03T02:47:04.966Z,20.46
2018-08-03T02:49:34.978Z,20.46
2018-08-03T02:52:04.993Z,20.40
2018-08-03T02:54:35.025Z,20.43
2018-08-03T02:57:05.102Z,20.45
2018-08-03T02:59:35.113Z,20.41
2018-08-03T03:02:05.153Z,20.35
2018-08-03T03:04:35.155Z,20.30
2018-08-03T03:07:04.808Z,20.30
2018-08-03T03:09:35.254Z,20.34
2018-08-03T03:12:05.268Z,20.32
2018-08-03T03:14:35.309Z,20.33
2018-08-03T03:17:05.337Z,20.31
2018-08-03T03:19:35.651Z,20.33
2018-08-03T03:22:05.824Z,20.33
2018-08-03T03:24:35.841Z,20.30
2018-08-03T03:27:05.892Z,20.34
2018-08-03T03:29:35.942Z,20.33
2018-08-03T03:32:05.927Z,20.32
2018-08-03T03:34:36.000Z,20.30
2018-08-03T03:37:06.187Z,20.29
2018-08-03T03:39:36.266Z,20.27
2018-08-03T03:42:06.453Z,20.27
2018-08-03T03:44:36.501Z,20.24
2018-08-03T03:47:06.550Z,20.22
2018-08-03T03:49:36.615Z,20.21
2018-08-03T03:52:06.683Z,20.20
2018-08-03T03:54:36.744Z,20.16
2018-08-03T03:57:06.994Z,20.16
2018-08-03T03:59:37.007Z,20.14
2018-08-03T04:02:07.226Z,20.14
2018-08-03T04:04:37.318Z,20.15
2018-08-03T04:07:07.565Z,20.13
2018-08-03T04:09:37.567Z,20.09
2018-08-03T04:12:07.810Z,20.09
2018-08-03T04:14:37.852Z,20.09
2018-08-03T04:17:07.451Z,20.07
2018-08-03T04:19:37.578Z,20.05
2018-08-03T04:22:07.630Z,20.07
2018-08-03T04:24:37.637Z,20.11
2018-08-03T04:27:07.632Z,20.13
2018-08-03T04:29:37.650Z,20.17
2018-08-03T04:32:07.689Z,20.18
2018-08-03T04:34:37.770Z,20.22
2018-08-03T04:37:07.761Z,20.21
2018-08-03T04:39:37.824Z,20.27
2018-08-03T04:42:08.538Z,20.27
2018-08-03T04:44:38.735Z,20.30
2018-08-03T04:49:44.168Z,20.44
2018-08-03T04:52:14.303Z,20.48
2018-08-03T04:54:44.579Z,20.49
2018-08-03T04:57:14.622Z,20.59
2018-08-03T04:59:44.726Z,20.66
2018-08-03T05:02:14.780Z,20.74
2018-08-03T05:04:44.835Z,20.87
2018-08-03T05:07:14.904Z,20.99
2018-08-03T05:09:45.004Z,21.09
2018-08-03T05:12:15.119Z,21.16
2018-08-03T05:14:45.224Z,21.21
2018-08-03T05:17:15.324Z,21.34
2018-08-03T05:19:45.688Z,21.44
2018-08-03T05:22:15.730Z,21.59
2018-08-03T05:24:45.815Z,21.69
2018-08-03T05:27:15.927Z,21.84
2018-08-03T05:29:45.985Z,21.94
2018-08-03T05:32:16.005Z,22.07
2018-08-03T05:34:45.960Z,22.19
2018-08-03T05:37:16.027Z,22.31
2018-08-03T05:39:46.101Z,22.42
2018-08-03T05:42:16.127Z,22.49
2018-08-03T05:44:46.153Z,22.61
2018-08-03T05:47:16.195Z,22.72
2018-08-03T05:49:46.212Z,22.84
2018-08-03T05:52:16.311Z,22.95
2018-08-03T05:54:46.505Z,23.10
2018-08-03T05:57:16.116Z,23.35
2018-08-03T05:59:46.206Z,23.58
2018-08-03T06:02:16.270Z,23.74
2018-08-03T06:04:46.322Z,23.91
2018-08-03T06:07:16.349Z,24.06
2018-08-03T06:09:46.312Z,24.10
2018-08-03T06:12:15.949Z,24.25
2018-08-03T06:14:46.006Z,24.28
2018-08-03T06:17:16.051Z,24.43
2018-08-03T06:19:46.065Z,24.47
2018-08-03T06:22:16.175Z,24.55
2018-08-03T06:24:46.221Z,24.59
2018-08-03T06:27:16.269Z,24.59
2018-08-03T06:29:46.320Z,24.66
2018-08-03T06:32:16.370Z,24.70
2018-08-03T06:34:46.388Z,24.69
2018-08-03T06:37:16.422Z,24.74
2018-08-03T06:39:46.436Z,24.82
2018-08-03T06:42:16.514Z,24.88
2018-08-03T06:44:46.574Z,25.01
2018-08-03T06:47:16.641Z,24.97
2018-08-03T06:49:46.319Z,24.96
2018-08-03T06:52:16.451Z,24.99
2018-08-03T06:54:46.549Z,24.99
2018-08-03T06:57:16.962Z,25.11
2018-08-03T06:59:46.982Z,25.26
2018-08-03T07:02:17.044Z,25.26
2018-08-03T07:04:46.746Z,25.25
2018-08-03T07:07:16.832Z,25.29
2018-08-03T07:09:46.879Z,25.30
2018-08-03T07:12:16.930Z,25.30
2018-08-03T07:14:47.017Z,25.40
2018-08-03T07:17:17.314Z,25.43
2018-08-03T07:19:47.409Z,25.59
2018-08-03T07:22:17.526Z,25.86
2018-08-03T07:24:47.579Z,25.96
2018-08-03T07:27:17.652Z,25.99
2018-08-03T07:29:47.663Z,26.19
2018-08-03T07:32:17.691Z,26.28
2018-08-03T07:34:48.193Z,26.23
2018-08-03T07:37:18.277Z,26.48
2018-08-03T07:39:48.326Z,26.60
2018-08-03T07:42:18.407Z,26.68
2018-08-03T07:44:48.503Z,26.88
2018-08-03T07:47:18.514Z,26.80
2018-08-03T07:49:48.682Z,27.03
2018-08-03T07:52:18.405Z,27.08
2018-08-03T07:54:48.015Z,27.01
2018-08-03T07:57:18.065Z,26.97
2018-08-03T07:59:48.087Z,27.22
2018-08-03T08:02:18.185Z,27.32
2018-08-03T08:04:47.824Z,27.24
2018-08-03T08:07:17.903Z,27.43
2018-08-03T08:09:48.021Z,27.58
2018-08-03T08:12:18.130Z,27.54
2018-08-03T08:14:48.169Z,27.81
2018-08-03T08:17:18.244Z,27.80
2018-08-03T08:19:48.282Z,28.06
2018-08-03T08:22:18.405Z,28.06
2018-08-03T08:24:48.472Z,28.09
2018-08-03T08:27:18.154Z,28.23
2018-08-03T08:29:48.263Z,28.30
2018-08-03T08:32:18.399Z,28.33
2018-08-03T08:34:48.474Z,28.33
2018-08-03T08:37:18.545Z,28.56
2018-08-03T08:39:48.593Z,28.79
2018-08-03T08:42:18.648Z,28.85
2018-08-03T08:44:48.735Z,28.57
2018-08-03T08:47:18.752Z,28.84
2018-08-03T08:49:48.392Z,28.92
2018-08-03T08:52:18.487Z,29.06
2018-08-03T08:54:48.527Z,29.31
2018-08-03T08:57:19.044Z,29.47
2018-08-03T08:59:48.656Z,29.42
2018-08-03T09:02:18.802Z,29.72
2018-08-03T09:04:48.876Z,29.68
2018-08-03T09:07:18.887Z,29.89
2018-08-03T09:09:48.955Z,30.03
2018-08-03T09:12:19.033Z,30.19
2018-08-03T09:14:49.067Z,30.26
2018-08-03T09:17:19.462Z,30.25
2018-08-03T09:19:49.526Z,30.27
2018-08-03T09:22:19.577Z,30.38
2018-08-03T09:24:49.642Z,30.60
2018-08-03T09:27:19.726Z,30.55
2018-08-03T09:29:49.784Z,30.72
2018-08-03T09:32:19.968Z,30.92
2018-08-03T09:34:49.612Z,30.97
2018-08-03T09:37:19.616Z,31.17
2018-08-03T09:39:49.777Z,31.01
2018-08-03T09:42:19.760Z,31.16
2018-08-03T09:44:49.815Z,31.25
2018-08-03T09:47:19.926Z,31.40
2018-08-03T09:49:49.984Z,30.84
2018-08-03T09:52:20.092Z,30.83
2018-08-03T09:54:50.250Z,30.94
2018-08-03T09:57:20.400Z,30.96
2018-08-03T09:59:50.503Z,30.88
2018-08-03T10:02:20.550Z,30.74
2018-08-03T10:04:50.614Z,30.73
2018-08-03T10:07:20.920Z,30.80
2018-08-03T10:09:51.048Z,30.73
2018-08-03T10:12:21.070Z,30.91
2018-08-03T10:14:51.107Z,30.87
2018-08-03T10:17:21.186Z,30.86
2018-08-03T10:19:51.236Z,31.01
2018-08-03T10:22:21.317Z,31.02
2018-08-03T10:24:51.382Z,31.09
2018-08-03T10:27:21.502Z,30.94
2018-08-03T10:29:51.524Z,31.16
2018-08-03T10:32:21.578Z,31.15
2018-08-03T10:34:51.686Z,31.10
2018-08-03T10:37:21.739Z,31.28
2018-08-03T10:39:51.879Z,31.41
2018-08-03T10:42:22.029Z,31.50
2018-08-03T10:44:52.276Z,31.69
2018-08-03T10:47:22.464Z,31.37
2018-08-03T10:49:52.516Z,31.61
2018-08-03T10:52:22.610Z,31.89
2018-08-03T10:54:53.368Z,32.03
2018-08-03T10:57:23.458Z,32.14
2018-08-03T10:59:53.534Z,32.34
2018-08-03T11:02:23.638Z,32.30
2018-08-03T11:04:53.671Z,32.26
2018-08-03T11:07:23.775Z,32.29
2018-08-03T11:09:53.833Z,32.16
2018-08-03T11:12:23.992Z,32.13
2018-08-03T11:14:54.128Z,32.38
2018-08-03T11:17:24.274Z,32.23
2018-08-03T11:19:54.325Z,32.27
2018-08-03T11:22:24.523Z,32.23
2018-08-03T11:24:54.874Z,32.16
2018-08-03T11:27:24.983Z,32.11
2018-08-03T11:29:55.081Z,32.19
2018-08-03T11:32:25.193Z,32.31
2018-08-03T11:34:55.272Z,31.99
2018-08-03T11:37:25.365Z,31.99
2018-08-03T11:39:55.542Z,31.85
2018-08-03T11:42:25.621Z,31.56
2018-08-03T11:44:55.723Z,31.75
2018-08-03T11:47:25.955Z,31.99
2018-08-03T11:49:56.096Z,31.99
2018-08-03T11:52:26.362Z,31.95
2018-08-03T11:54:56.602Z,31.82
2018-08-03T11:57:26.850Z,31.87
2018-08-03T11:59:56.951Z,31.93
2018-08-03T12:02:27.313Z,31.85
2018-08-03T12:04:57.364Z,31.88
2018-08-03T12:07:27.645Z,31.49
2018-08-03T12:09:57.724Z,31.59
2018-08-03T12:12:28.350Z,31.79
2018-08-03T12:14:58.453Z,31.74
2018-08-03T12:17:28.810Z,31.79
2018-08-03T12:19:58.911Z,31.81
2018-08-03T12:22:29.242Z,31.67
2018-08-03T12:24:59.351Z,31.69
2018-08-03T12:27:29.570Z,31.86
2018-08-03T12:29:59.665Z,32.11
2018-08-03T12:32:30.413Z,32.12
2018-08-03T12:35:00.482Z,31.96
2018-08-03T12:37:30.772Z,31.98
2018-08-03T12:40:00.875Z,32.09
2018-08-03T12:42:31.090Z,32.01
2018-08-03T12:45:01.115Z,31.90
2018-08-03T12:47:31.371Z,31.88
2018-08-03T12:50:01.407Z,31.87
2018-08-03T12:52:31.574Z,31.93
2018-08-03T12:55:01.588Z,31.88
2018-08-03T12:57:31.873Z,31.88
2018-08-03T13:00:01.894Z,32.13
2018-08-03T13:02:32.332Z,32.31
2018-08-03T13:05:02.407Z,32.50
2018-08-03T13:07:32.621Z,32.57
2018-08-03T13:10:02.740Z,32.59
2018-08-03T13:12:32.489Z,32.69
2018-08-03T13:15:02.458Z,32.59
2018-08-03T13:17:32.595Z,32.68
2018-08-03T13:20:02.464Z,32.75
2018-08-03T13:22:32.723Z,32.90
2018-08-03T13:25:02.740Z,32.99
2018-08-03T13:27:32.893Z,32.99
2018-08-03T13:30:02.966Z,32.59
2018-08-03T13:32:33.164Z,32.78
2018-08-03T13:35:03.255Z,32.67
2018-08-03T13:37:32.967Z,32.68
2018-08-03T13:40:02.983Z,32.88
2018-08-03T13:42:33.209Z,32.83
2018-08-03T13:45:02.900Z,33.02
2018-08-03T13:47:33.092Z,33.03
2018-08-03T13:50:03.120Z,32.97
2018-08-03T13:52:33.305Z,33.02
2018-08-03T13:55:03.395Z,32.94
2018-08-03T13:57:33.547Z,33.02
2018-08-03T14:00:03.626Z,33.20
2018-08-03T14:02:33.844Z,33.18
2018-08-03T14:05:03.957Z,33.35
2018-08-03T14:07:34.179Z,33.59
2018-08-03T14:10:04.294Z,33.51
2018-08-03T14:12:34.465Z,33.57
2018-08-03T14:15:04.607Z,33.43
2018-08-03T14:17:34.735Z,33.47
2018-08-03T14:20:04.995Z,33.40
2018-08-03T14:22:36.097Z,33.66
2018-08-03T14:25:06.267Z,33.60
2018-08-03T14:27:36.594Z,33.67
2018-08-03T14:30:08.231Z,33.58
2018-08-03T14:32:37.942Z,33.71
2018-08-03T14:35:07.995Z,33.84
2018-08-03T14:37:38.148Z,33.85
2018-08-03T14:40:08.668Z,34.03
2018-08-03T14:42:38.860Z,33.91
2018-08-03T14:45:09.537Z,34.04
2018-08-03T14:47:39.698Z,34.06
2018-08-03T14:50:09.392Z,34.11
2018-08-03T14:52:39.573Z,34.02
2018-08-03T14:55:09.681Z,34.13
2018-08-03T14:57:39.901Z,34.17
2018-08-03T15:00:10.223Z,34.07
2018-08-03T15:02:40.416Z,33.99
2018-08-03T15:05:10.437Z,33.86
2018-08-03T15:07:40.620Z,33.80
2018-08-03T15:10:10.720Z,33.52
2018-08-03T15:12:40.881Z,33.49
2018-08-03T15:15:10.887Z,33.29
2018-08-03T15:17:41.004Z,33.33
2018-08-03T15:20:11.518Z,33.27
2018-08-03T15:22:41.691Z,33.25
2018-08-03T15:25:12.251Z,33.43
2018-08-03T15:27:42.441Z,33.42
2018-08-03T15:30:13.021Z,33.40
2018-08-03T15:32:42.667Z,33.20
2018-08-03T15:35:12.754Z,33.04
2018-08-03T15:37:42.950Z,33.06
2018-08-03T15:40:13.078Z,33.10
2018-08-03T15:42:43.278Z,32.98
2018-08-03T15:45:13.306Z,32.94
2018-08-03T15:47:43.430Z,33.04
2018-08-03T15:50:13.499Z,32.92
2018-08-03T15:52:43.698Z,33.01
2018-08-03T15:55:14.294Z,33.03
2018-08-03T15:57:44.408Z,33.07
2018-08-03T16:00:14.511Z,33.11
2018-08-03T16:02:44.304Z,33.14
2018-08-03T16:05:14.377Z,33.05
2018-08-03T16:07:44.387Z,33.07
2018-08-03T16:10:15.327Z,33.13
2018-08-03T16:12:45.353Z,33.15
2018-08-03T16:15:15.453Z,33.08
2018-08-03T16:17:45.475Z,33.01
2018-08-03T16:20:15.210Z,32.95
2018-08-03T16:22:45.378Z,33.02
2018-08-03T16:25:15.494Z,32.87
2018-08-03T16:27:45.186Z,32.62
2018-08-03T16:30:15.333Z,32.70
2018-08-03T16:32:45.420Z,32.51
2018-08-03T16:35:15.068Z,32.59
2018-08-03T16:37:45.181Z,32.58
2018-08-03T16:40:15.291Z,32.55
2018-08-03T16:42:45.341Z,32.59
2018-08-03T16:45:15.435Z,32.70
2018-08-03T16:47:45.492Z,32.63
2018-08-03T16:50:15.813Z,32.63
2018-08-03T16:52:45.837Z,32.64
2018-08-03T16:55:15.885Z,32.61
2018-08-03T16:57:45.695Z,32.46
2018-08-03T17:00:18.236Z,32.44
2018-08-03T17:02:49.110Z,32.48
2018-08-03T17:05:19.116Z,32.52
2018-08-03T17:07:49.171Z,32.47
2018-08-03T17:10:18.855Z,32.39
2018-08-03T17:12:48.861Z,32.40
2018-08-03T17:15:18.938Z,32.42
2018-08-03T17:17:48.997Z,32.40
2018-08-03T17:20:19.102Z,32.35
2018-08-03T17:22:49.718Z,32.36
2018-08-03T17:25:19.802Z,32.34
2018-08-03T17:27:49.799Z,32.23
2018-08-03T17:30:19.817Z,32.08
2018-08-03T17:32:49.860Z,32.13
2018-08-03T17:35:20.011Z,32.11
2018-08-03T17:37:50.078Z,32.06
2018-08-03T17:40:20.184Z,32.05
2018-08-03T17:42:50.249Z,32.00
2018-08-03T17:45:20.313Z,31.99
2018-08-03T17:47:50.304Z,31.93
2018-08-03T17:50:20.343Z,31.90
2018-08-03T17:52:49.936Z,31.88
2018-08-03T17:55:19.972Z,31.84
2018-08-03T17:57:49.592Z,31.81
2018-08-03T18:00:19.726Z,31.74
2018-08-03T18:02:49.822Z,31.72
2018-08-03T18:05:19.823Z,31.61
2018-08-03T18:07:49.929Z,31.49
2018-08-03T18:10:20.064Z,31.40
2018-08-03T18:12:50.118Z,31.30
2018-08-03T18:15:19.767Z,31.23
2018-08-03T18:17:49.767Z,31.11
2018-08-03T18:20:19.834Z,31.01
2018-08-03T18:22:49.829Z,30.92
2018-08-03T18:25:19.859Z,30.85
2018-08-03T18:27:49.884Z,30.80
2018-08-03T18:30:19.899Z,30.70
2018-08-03T18:32:50.589Z,30.63
2018-08-03T18:35:20.629Z,30.54
2018-08-03T18:37:50.670Z,30.45
2018-08-03T18:40:20.746Z,30.35
2018-08-03T18:42:50.803Z,30.23
2018-08-03T18:45:20.869Z,30.15
2018-08-03T18:47:50.890Z,30.02
2018-08-03T18:50:20.926Z,29.95
2018-08-03T18:52:50.988Z,29.83
2018-08-03T18:55:21.069Z,29.70
2018-08-03T18:57:51.139Z,29.54
2018-08-03T19:00:21.243Z,29.31
2018-08-03T19:02:51.000Z,29.17
2018-08-03T19:05:21.078Z,29.04
2018-08-03T19:07:51.369Z,28.82
2018-08-03T19:10:21.488Z,28.69
2018-08-03T19:12:51.518Z,28.54
2018-08-03T19:15:21.557Z,28.35
2018-08-03T19:17:51.635Z,28.25
2018-08-03T19:20:21.844Z,28.14
2018-08-03T19:22:52.204Z,28.04
2018-08-03T19:25:22.349Z,27.88
2018-08-03T19:27:52.787Z,27.77
2018-08-03T19:30:22.862Z,27.62
2018-08-03T19:32:52.925Z,27.53
2018-08-03T19:35:23.100Z,27.45
2018-08-03T19:37:53.158Z,27.38
2018-08-03T19:40:23.228Z,27.32
2018-08-03T19:42:53.349Z,27.17
2018-08-03T19:45:23.531Z,27.14
2018-08-03T19:47:53.866Z,27.07
2018-08-03T19:50:24.047Z,26.98
2018-08-03T19:52:54.139Z,26.89
2018-08-03T19:55:24.149Z,26.80
2018-08-03T19:57:54.241Z,26.73
2018-08-03T20:00:24.320Z,26.66
2018-08-03T20:02:54.542Z,26.60
2018-08-03T20:05:24.753Z,26.47
2018-08-03T20:07:54.526Z,26.41
2018-08-03T20:10:24.748Z,26.33
2018-08-03T20:12:57.560Z,26.25
2018-08-03T20:15:27.653Z,26.18
2018-08-03T20:17:58.594Z,26.11
2018-08-03T20:20:28.686Z,26.05
2018-08-03T20:22:58.807Z,25.94
2018-08-03T20:25:28.916Z,25.87
2018-08-03T20:27:59.048Z,25.84
2018-08-03T20:30:29.158Z,25.73
2018-08-03T20:32:59.450Z,25.65
2018-08-03T20:35:29.703Z,25.60
2018-08-03T20:38:00.080Z,25.53
2018-08-03T20:40:30.346Z,25.46
2018-08-03T20:43:00.626Z,25.44
2018-08-03T20:45:30.749Z,25.37
2018-08-03T20:48:00.905Z,25.29
2018-08-03T20:50:31.217Z,25.23
2018-08-03T20:53:01.332Z,25.14
2018-08-03T20:55:31.474Z,25.09
2018-08-03T20:58:01.578Z,25.03
2018-08-03T21:00:31.745Z,25.02
2018-08-03T21:03:01.848Z,24.98
2018-08-03T21:05:31.941Z,24.97
2018-08-03T21:10:32.192Z,24.89
2018-08-03T21:13:02.296Z,24.84
2018-08-03T21:15:32.322Z,24.76
2018-08-03T21:18:02.420Z,24.71
2018-08-03T21:20:33.024Z,24.70
2018-08-03T21:23:03.087Z,24.70
2018-08-03T21:25:33.187Z,24.65
2018-08-03T21:28:04.333Z,24.64
2018-08-03T21:30:34.466Z,24.58
2018-08-03T21:33:04.596Z,24.56
2018-08-03T21:35:34.641Z,24.52
2018-08-03T21:38:04.841Z,24.46
2018-08-03T21:40:34.961Z,24.44
2018-08-03T21:43:05.042Z,24.44
2018-08-03T21:45:35.187Z,24.42
2018-08-03T21:48:05.283Z,24.42
2018-08-03T21:50:35.315Z,24.40
2018-08-03T21:53:05.480Z,24.40
2018-08-03T21:55:35.156Z,24.37
2018-08-03T21:58:05.365Z,24.37
2018-08-03T22:00:35.519Z,24.36
2018-08-03T22:03:05.643Z,24.30
2018-08-03T22:05:35.709Z,24.27
2018-08-03T22:08:06.033Z,24.23
2018-08-03T22:10:36.134Z,24.20
2018-08-03T22:13:05.831Z,24.17
2018-08-03T22:15:35.944Z,24.09
2018-08-03T22:18:06.116Z,24.05
2018-08-03T22:20:36.224Z,24.03
2018-08-03T22:23:06.507Z,23.99
2018-08-03T22:25:36.646Z,23.93
2018-08-03T22:28:07.273Z,23.87
2018-08-03T22:30:38.130Z,23.87
2018-08-03T22:33:08.267Z,23.82
2018-08-03T22:35:38.369Z,23.79
2018-08-03T22:38:08.532Z,23.74
2018-08-03T22:40:38.683Z,23.72
2018-08-03T22:43:09.151Z,23.70
2018-08-03T22:45:39.360Z,23.68
2018-08-03T22:48:09.628Z,23.64
2018-08-03T22:50:39.373Z,23.59
2018-08-03T22:53:09.718Z,23.51
2018-08-03T22:55:40.499Z,23.49
2018-08-03T22:58:10.637Z,23.49
2018-08-03T23:00:40.341Z,23.45
2018-08-03T23:03:10.053Z,23.41
2018-08-03T23:05:40.167Z,23.39
2018-08-03T23:08:10.514Z,23.37
2018-08-03T23:10:40.665Z,23.35
2018-08-03T23:13:10.811Z,23.30
2018-08-03T23:15:40.984Z,23.23
2018-08-03T23:18:11.353Z,23.21
2018-08-03T23:20:41.502Z,23.16
2018-08-03T23:23:11.627Z,23.14
2018-08-03T23:25:41.891Z,23.12
2018-08-03T23:28:12.029Z,23.08
2018-08-03T23:30:42.145Z,23.04
2018-08-03T23:33:12.426Z,23.03
2018-08-03T23:35:42.575Z,23.04
2018-08-03T23:38:12.702Z,23.06
2018-08-03T23:40:42.859Z,23.05
2018-08-03T23:43:12.931Z,23.06
2018-08-03T23:45:43.093Z,23.03
2018-08-03T23:48:13.346Z,22.98
2018-08-03T23:50:43.547Z,22.95
2018-08-03T23:53:13.678Z,22.91
2018-08-03T23:55:43.897Z,22.89
2018-08-03T23:58:13.981Z,22.86
